Time,TemperatureF,DewpointF,PressureIn,WindDirection,WindDirectionDegrees,WindSpeedMPH,WindSpeedGustMPH,Humidity,HourlyPrecipIn,Conditions,Clouds,dailyrainin,SoftwareType,DateUTC
2013-02-08 00:00:00,44.0,21.8,30.11,SE,132,4.0,7.0,41,0.00,,---,0.00,VWS V14.01,2013-02-08 07:00:00,
2013-02-08 00:05:00,44.1,21.9,30.11,SE,139,4.0,8.0,41,0.00,,---,0.00,VWS V14.01,2013-02-08 07:05:00,
2013-02-08 00:10:00,44.0,21.8,30.11,ESE,109,5.0,6.0,41,0.00,,---,0.00,VWS V14.01,2013-02-08 07:10:00,
2013-02-08 00:15:00,44.0,21.8,30.11,ESE,114,4.0,8.0,41,0.00,,---,0.00,VWS V14.01,2013-02-08 07:15:00,
2013-02-08 00:20:00,44.1,21.9,30.11,SE,134,4.0,6.0,41,0.00,,---,0.00,VWS V14.01,2013-02-08 07:20:00,
2013-02-08 00:25:00,44.0,21.8,30.11,East,101,2.0,5.0,41,0.00,,---,0.00,VWS V14.01,2013-02-08 07:25:00,
2013-02-08 00:30:00,44.0,21.8,30.11,ENE,65,2.0,3.0,41,0.00,,---,0.00,VWS V14.01,2013-02-08 07:30:00,
2013-02-08 00:35:00,43.7,21.6,30.11,ENE,73,0.0,1.0,41,0.00,,---,0.00,VWS V14.01,2013-02-08 07:35:00,
2013-02-08 00:40:00,43.3,21.2,30.11,NNW,329,2.0,2.0,41,0.00,,---,0.00,VWS V14.01,2013-02-08 07:40:00,
2013-02-08 00:45:00,42.0,20.0,30.11,North,355,1.0,3.0,41,0.00,,---,0.00,VWS V14.01,2013-02-08 07:45:00,
2013-02-08 00:50:00,41.0,19.1,30.11,NNW,340,2.0,3.0,41,0.00,,---,0.00,VWS V14.01,2013-02-08 07:50:00,
2013-02-08 00:55:00,40.4,19.1,30.11,North,360,2.0,4.0,42,0.00,,---,0.00,VWS V14.01,2013-02-08 07:55:00,
2013-02-08 01:00:00,40.3,19.0,30.11,NNW,345,1.0,2.0,42,0.00,,---,0.00,VWS V14.01,2013-02-08 08:00:00,
2013-02-08 01:05:00,40.3,19.6,30.11,NNW,342,4.0,4.0,43,0.00,,---,0.00,VWS V14.01,2013-02-08 08:05:00,
2013-02-08 01:10:00,40.4,19.7,30.11,NNW,344,3.0,4.0,43,0.00,,---,0.00,VWS V14.01,2013-02-08 08:10:00,
2013-02-08 01:15:00,40.5,19.8,30.11,NNW,340,0.0,1.0,43,0.00,,---,0.00,VWS V14.01,2013-02-08 08:15:00,
2013-02-08 01:20:00,40.4,19.7,30.11,NNW,340,0.0,0.0,43,0.00,,---,0.00,VWS V14.01,2013-02-08 08:20:00,
2013-02-08 01:25:00,40.0,19.9,30.11,NNW,340,0.0,0.0,44,0.00,,---,0.00,VWS V14.01,2013-02-08 08:25:00,
2013-02-08 01:30:00,39.8,19.7,30.11,NNW,340,1.0,1.0,44,0.00,,---,0.00,VWS V14.01,2013-02-08 08:30:00,
2013-02-08 01:35:00,39.6,20.0,30.11,NNW,335,0.0,0.0,45,0.00,,---,0.00,VWS V14.01,2013-02-08 08:35:00,
2013-02-08 01:40:00,39.5,19.9,30.10,NNW,335,0.0,0.0,45,0.00,,---,0.00,VWS V14.01,2013-02-08 08:40:00,
2013-02-08 01:45:00,39.3,19.8,30.11,NNW,335,0.0,0.0,45,0.00,,---,0.00,VWS V14.01,2013-02-08 08:45:00,
2013-02-08 01:50:00,39.1,19.6,30.10,NNW,340,1.0,1.0,45,0.00,,---,0.00,VWS V14.01,2013-02-08 08:50:00,
2013-02-08 01:55:00,39.2,19.7,30.11,NNW,341,0.0,1.0,45,0.00,,---,0.00,VWS V14.01,2013-02-08 08:55:00,
2013-02-08 02:00:00,39.1,19.6,30.10,NNW,341,1.0,2.0,45,0.00,,---,0.00,VWS V14.01,2013-02-08 09:00:00,
2013-02-08 02:05:00,39.0,20.0,30.10,NNW,327,0.0,0.0,46,0.00,,---,0.00,VWS V14.01,2013-02-08 09:05:00,
2013-02-08 02:10:00,38.8,19.8,30.10,NNW,342,0.0,1.0,46,0.00,,---,0.00,VWS V14.01,2013-02-08 09:10:00,
2013-02-08 02:15:00,38.6,19.6,30.10,NNW,347,2.0,2.0,46,0.00,,---,0.00,VWS V14.01,2013-02-08 09:15:00,
2013-02-08 02:20:00,38.3,19.9,30.11,NNW,338,0.0,1.0,47,0.00,,---,0.00,VWS V14.01,2013-02-08 09:20:00,
2013-02-08 02:25:00,38.1,19.7,30.11,NNW,331,0.0,0.0,47,0.00,,---,0.00,VWS V14.01,2013-02-08 09:25:00,
2013-02-08 02:30:00,37.7,19.8,30.10,NNW,331,0.0,1.0,48,0.00,,---,0.00,VWS V14.01,2013-02-08 09:30:00,
2013-02-08 02:35:00,37.5,19.6,30.10,NNW,331,0.0,1.0,48,0.00,,---,0.00,VWS V14.01,2013-02-08 09:35:00,
2013-02-08 02:40:00,37.3,19.4,30.09,NNW,347,3.0,3.0,48,0.00,,---,0.00,VWS V14.01,2013-02-08 09:40:00,
2013-02-08 02:45:00,37.0,19.6,30.09,NNW,347,1.0,1.0,49,0.00,,---,0.00,VWS V14.01,2013-02-08 09:45:00,
2013-02-08 02:50:00,36.6,19.7,30.09,NNW,345,1.0,2.0,50,0.00,,---,0.00,VWS V14.01,2013-02-08 09:50:00,
2013-02-08 02:55:00,36.5,19.6,30.09,NNW,345,0.0,0.0,50,0.00,,---,0.00,VWS V14.01,2013-02-08 09:55:00,
2013-02-08 03:00:00,36.2,19.8,30.09,NNW,345,0.0,0.0,51,0.00,,---,0.00,VWS V14.01,2013-02-08 10:00:00,
2013-02-08 03:05:00,36.1,19.7,30.09,NNW,345,0.0,0.0,51,0.00,,---,0.00,VWS V14.01,2013-02-08 10:05:00,
2013-02-08 03:10:00,36.0,19.6,30.09,NNW,346,0.0,0.0,51,0.00,,---,0.00,VWS V14.01,2013-02-08 10:10:00,
2013-02-08 03:15:00,35.7,19.8,30.09,NNW,346,0.0,0.0,52,0.00,,---,0.00,VWS V14.01,2013-02-08 10:15:00,
2013-02-08 03:20:00,35.3,19.5,30.09,NNW,346,0.0,0.0,52,0.00,,---,0.00,VWS V14.01,2013-02-08 10:20:00,
2013-02-08 03:25:00,34.8,19.9,30.09,NNW,346,0.0,0.0,54,0.00,,---,0.00,VWS V14.01,2013-02-08 10:25:00,
2013-02-08 03:30:00,34.6,19.7,30.09,NNW,346,0.0,0.0,54,0.00,,---,0.00,VWS V14.01,2013-02-08 10:30:00,
2013-02-08 03:34:00,34.5,19.6,30.09,NNW,346,0.0,0.0,54,0.00,,---,0.00,VWS V14.01,2013-02-08 10:34:00,
2013-02-08 03:35:00,34.5,19.6,30.09,NNW,346,0.0,0.0,54,0.00,,---,0.00,VWS V14.01,2013-02-08 10:35:00,
2013-02-08 03:39:00,34.4,19.5,30.09,NNW,346,0.0,0.0,54,0.00,,---,0.00,VWS V14.01,2013-02-08 10:39:00,
2013-02-08 03:40:00,34.4,19.5,30.09,NNW,346,0.0,0.0,54,0.00,,---,0.00,VWS V14.01,2013-02-08 10:40:00,
2013-02-08 03:44:00,34.2,19.3,30.09,NNW,346,0.0,0.0,54,0.00,,---,0.00,VWS V14.01,2013-02-08 10:44:00,
2013-02-08 03:45:00,34.2,19.3,30.09,NNW,346,0.0,0.0,54,0.00,,---,0.00,VWS V14.01,2013-02-08 10:45:00,
2013-02-08 03:50:00,33.7,19.3,30.09,NNW,346,0.0,0.0,55,0.00,,---,0.00,VWS V14.01,2013-02-08 10:50:00,
2013-02-08 03:54:00,33.6,19.6,30.09,NNW,346,0.0,0.0,56,0.00,,---,0.00,VWS V14.01,2013-02-08 10:54:00,
2013-02-08 03:55:00,33.7,19.7,30.09,NNW,346,0.0,0.0,56,0.00,,---,0.00,VWS V14.01,2013-02-08 10:55:00,
2013-02-08 04:00:00,33.4,19.4,30.09,NNW,346,0.0,0.0,56,0.00,,---,0.00,VWS V14.01,2013-02-08 11:00:00,
2013-02-08 04:05:00,33.3,19.7,30.09,NNW,346,0.0,0.0,57,0.00,,---,0.00,VWS V14.01,2013-02-08 11:05:00,
2013-02-08 04:10:00,33.2,19.6,30.09,NNW,346,0.0,0.0,57,0.00,,---,0.00,VWS V14.01,2013-02-08 11:10:00,
2013-02-08 04:15:00,33.2,19.6,30.08,NNW,346,0.0,0.0,57,0.00,,---,0.00,VWS V14.01,2013-02-08 11:15:00,
2013-02-08 04:20:00,33.2,19.6,30.08,NNW,346,0.0,0.0,57,0.00,,---,0.00,VWS V14.01,2013-02-08 11:20:00,
2013-02-08 04:24:00,32.9,19.4,30.08,NNW,346,0.0,0.0,57,0.00,,---,0.00,VWS V14.01,2013-02-08 11:24:00,
2013-02-08 04:25:00,32.9,19.4,30.08,NNW,346,0.0,0.0,57,0.00,,---,0.00,VWS V14.01,2013-02-08 11:25:00,
2013-02-08 04:29:00,33.1,19.5,30.08,NNW,346,0.0,0.0,57,0.00,,---,0.00,VWS V14.01,2013-02-08 11:29:00,
2013-02-08 04:30:00,33.0,19.4,30.08,NNW,346,0.0,0.0,57,0.00,,---,0.00,VWS V14.01,2013-02-08 11:30:00,
2013-02-08 04:34:00,33.1,19.5,30.08,NNW,346,0.0,0.0,57,0.00,,---,0.00,VWS V14.01,2013-02-08 11:34:00,
2013-02-08 04:35:00,33.1,19.5,30.08,NNW,346,0.0,0.0,57,0.00,,---,0.00,VWS V14.01,2013-02-08 11:35:00,
2013-02-08 04:39:00,33.2,19.6,30.08,NNW,346,0.0,0.0,57,0.00,,---,0.00,VWS V14.01,2013-02-08 11:39:00,
2013-02-08 04:40:00,33.2,19.6,30.08,NNW,346,0.0,0.0,57,0.00,,---,0.00,VWS V14.01,2013-02-08 11:40:00,
2013-02-08 04:44:00,33.2,19.6,30.08,NNW,346,0.0,1.0,57,0.00,,---,0.00,VWS V14.01,2013-02-08 11:44:00,
2013-02-08 04:45:00,33.2,19.6,30.08,NNW,346,0.0,0.0,57,0.00,,---,0.00,VWS V14.01,2013-02-08 11:45:00,
2013-02-08 04:49:00,33.0,19.9,30.07,NNW,346,1.0,1.0,58,0.00,,---,0.00,VWS V14.01,2013-02-08 11:49:00,
2013-02-08 04:50:00,33.0,19.9,30.07,NNW,346,0.0,1.0,58,0.00,,---,0.00,VWS V14.01,2013-02-08 11:50:00,
2013-02-08 04:54:00,32.9,19.4,30.08,NNW,346,0.0,0.0,57,0.00,,---,0.00,VWS V14.01,2013-02-08 11:54:00,
2013-02-08 04:55:00,33.0,19.4,30.08,NNW,346,0.0,1.0,57,0.00,,---,0.00,VWS V14.01,2013-02-08 11:55:00,
2013-02-08 04:59:00,32.8,19.7,30.08,NNW,346,0.0,0.0,58,0.00,,---,0.00,VWS V14.01,2013-02-08 11:59:00,
2013-02-08 05:00:00,32.8,19.7,30.08,NNW,346,0.0,0.0,58,0.00,,---,0.00,VWS V14.01,2013-02-08 12:00:00,
2013-02-08 05:04:00,32.6,19.9,30.08,NNW,346,0.0,0.0,59,0.00,,---,0.00,VWS V14.01,2013-02-08 12:04:00,
2013-02-08 05:05:00,32.6,19.9,30.08,NNW,346,0.0,0.0,59,0.00,,---,0.00,VWS V14.01,2013-02-08 12:05:00,
2013-02-08 05:09:00,32.7,20.0,30.07,NNW,346,0.0,0.0,59,0.00,,---,0.00,VWS V14.01,2013-02-08 12:09:00,
2013-02-08 05:10:00,32.7,20.0,30.07,NNW,346,0.0,0.0,59,0.00,,---,0.00,VWS V14.01,2013-02-08 12:10:00,
2013-02-08 05:14:00,32.8,20.1,30.07,NNW,346,0.0,1.0,59,0.00,,---,0.00,VWS V14.01,2013-02-08 12:14:00,
2013-02-08 05:15:00,32.7,20.0,30.07,NNW,346,1.0,1.0,59,0.00,,---,0.00,VWS V14.01,2013-02-08 12:15:00,
2013-02-08 05:19:00,33.0,19.9,30.07,NNW,346,0.0,0.0,58,0.00,,---,0.00,VWS V14.01,2013-02-08 12:19:00,
2013-02-08 05:20:00,33.0,19.9,30.07,NNW,346,0.0,1.0,58,0.00,,---,0.00,VWS V14.01,2013-02-08 12:20:00,
2013-02-08 05:24:00,32.9,19.8,30.07,NNW,346,0.0,0.0,58,0.00,,---,0.00,VWS V14.01,2013-02-08 12:24:00,
2013-02-08 05:25:00,32.9,19.8,30.07,NNW,346,0.0,0.0,58,0.00,,---,0.00,VWS V14.01,2013-02-08 12:25:00,
2013-02-08 05:29:00,32.6,19.5,30.08,NNW,346,0.0,0.0,58,0.00,,---,0.00,VWS V14.01,2013-02-08 12:29:00,
2013-02-08 05:30:00,32.6,19.5,30.08,NNW,346,0.0,1.0,58,0.00,,---,0.00,VWS V14.01,2013-02-08 12:30:00,
2013-02-08 05:34:00,32.5,19.8,30.08,NNW,346,0.0,0.0,59,0.00,,---,0.00,VWS V14.01,2013-02-08 12:34:00,
2013-02-08 05:35:00,32.5,19.8,30.08,NNW,346,0.0,0.0,59,0.00,,---,0.00,VWS V14.01,2013-02-08 12:35:00,
2013-02-08 05:39:00,32.4,19.7,30.08,NNW,346,0.0,0.0,59,0.00,,---,0.00,VWS V14.01,2013-02-08 12:39:00,
2013-02-08 05:40:00,32.4,19.7,30.08,NNW,346,0.0,0.0,59,0.00,,---,0.00,VWS V14.01,2013-02-08 12:40:00,
2013-02-08 05:44:00,32.6,19.5,30.08,NNW,346,0.0,0.0,58,0.00,,---,0.00,VWS V14.01,2013-02-08 12:44:00,
2013-02-08 05:45:00,32.6,19.9,30.07,NNW,346,0.0,1.0,59,0.00,,---,0.00,VWS V14.01,2013-02-08 12:45:00,
2013-02-08 05:49:00,32.7,19.6,30.07,NNW,346,0.0,0.0,58,0.00,,---,0.00,VWS V14.01,2013-02-08 12:49:00,
2013-02-08 05:50:00,32.7,20.0,30.08,NNW,346,0.0,0.0,59,0.00,,---,0.00,VWS V14.01,2013-02-08 12:50:00,
2013-02-08 05:54:00,33.0,19.9,30.07,NNW,346,0.0,0.0,58,0.00,,---,0.00,VWS V14.01,2013-02-08 12:54:00,
2013-02-08 05:55:00,32.9,19.8,30.07,NNW,346,0.0,1.0,58,0.00,,---,0.00,VWS V14.01,2013-02-08 12:55:00,
2013-02-08 05:59:00,33.1,19.5,30.07,NNW,346,0.0,0.0,57,0.00,,---,0.00,VWS V14.01,2013-02-08 12:59:00,
2013-02-08 06:00:00,33.0,19.4,30.07,NNW,346,0.0,0.0,57,0.00,,---,0.00,VWS V14.01,2013-02-08 13:00:00,
2013-02-08 06:04:00,33.0,19.4,30.07,NNW,346,1.0,1.0,57,0.00,,---,0.00,VWS V14.01,2013-02-08 13:04:00,
2013-02-08 06:05:00,32.9,19.4,30.07,NNW,346,0.0,0.0,57,0.00,,---,0.00,VWS V14.01,2013-02-08 13:05:00,
2013-02-08 06:09:00,32.9,19.4,30.07,NNW,346,0.0,0.0,57,0.00,,---,0.00,VWS V14.01,2013-02-08 13:09:00,
2013-02-08 06:14:00,32.7,19.6,30.08,NNW,346,0.0,0.0,58,0.00,,---,0.00,VWS V14.01,2013-02-08 13:14:00,
2013-02-08 06:15:00,32.7,19.6,30.07,NNW,346,0.0,0.0,58,0.00,,---,0.00,VWS V14.01,2013-02-08 13:15:00,
2013-02-08 06:19:00,32.8,19.7,30.07,NNW,346,0.0,0.0,58,0.00,,---,0.00,VWS V14.01,2013-02-08 13:19:00,
2013-02-08 06:20:00,32.8,19.7,30.07,NNW,346,0.0,1.0,58,0.00,,---,0.00,VWS V14.01,2013-02-08 13:20:00,
2013-02-08 06:24:00,32.6,19.5,30.07,NNW,346,0.0,0.0,58,0.00,,---,0.00,VWS V14.01,2013-02-08 13:24:00,
2013-02-08 06:25:00,32.7,19.6,30.08,NNW,346,0.0,0.0,58,0.00,,---,0.00,VWS V14.01,2013-02-08 13:25:00,
2013-02-08 06:29:00,32.8,19.7,30.07,NNW,346,0.0,2.0,58,0.00,,---,0.00,VWS V14.01,2013-02-08 13:29:00,
2013-02-08 06:30:00,32.8,19.7,30.07,NNW,346,1.0,1.0,58,0.00,,---,0.00,VWS V14.01,2013-02-08 13:30:00,
2013-02-08 06:34:00,33.2,19.6,30.07,NNW,346,0.0,0.0,57,0.00,,---,0.00,VWS V14.01,2013-02-08 13:34:00,
2013-02-08 06:35:00,33.1,19.5,30.07,NNW,346,0.0,2.0,57,0.00,,---,0.00,VWS V14.01,2013-02-08 13:35:00,
2013-02-08 06:39:00,32.7,19.2,30.07,NNW,346,0.0,0.0,57,0.00,,---,0.00,VWS V14.01,2013-02-08 13:39:00,
2013-02-08 06:44:00,32.6,19.5,30.07,NNW,346,0.0,0.0,58,0.00,,---,0.00,VWS V14.01,2013-02-08 13:44:00,
2013-02-08 06:45:00,32.6,19.5,30.07,NNW,346,0.0,0.0,58,0.00,,---,0.00,VWS V14.01,2013-02-08 13:45:00,
2013-02-08 06:49:00,32.5,19.8,30.07,NNW,346,0.0,2.0,59,0.00,,---,0.00,VWS V14.01,2013-02-08 13:49:00,
2013-02-08 06:50:00,32.5,19.8,30.07,NNW,346,2.0,2.0,59,0.00,,---,0.00,VWS V14.01,2013-02-08 13:50:00,
2013-02-08 06:54:00,32.7,19.6,30.07,WNW,298,0.0,0.0,58,0.00,,---,0.00,VWS V14.01,2013-02-08 13:54:00,
2013-02-08 06:55:00,32.7,19.6,30.07,WNW,298,0.0,2.0,58,0.00,,---,0.00,VWS V14.01,2013-02-08 13:55:00,
2013-02-08 06:59:00,32.8,19.7,30.07,WNW,298,0.0,0.0,58,0.00,,---,0.00,VWS V14.01,2013-02-08 13:59:00,
2013-02-08 07:00:00,32.8,19.7,30.07,WNW,298,0.0,0.0,58,0.00,,---,0.00,VWS V14.01,2013-02-08 14:00:00,
2013-02-08 07:04:00,32.6,19.9,30.07,WNW,298,0.0,0.0,59,0.00,,---,0.00,VWS V14.01,2013-02-08 14:04:00,
2013-02-08 07:05:00,32.6,19.9,30.07,WNW,298,0.0,0.0,59,0.00,,---,0.00,VWS V14.01,2013-02-08 14:05:00,
2013-02-08 07:09:00,32.2,19.5,30.08,WNW,298,0.0,0.0,59,0.00,,---,0.00,VWS V14.01,2013-02-08 14:09:00,
2013-02-08 07:10:00,32.3,19.6,30.07,WNW,298,0.0,0.0,59,0.00,,---,0.00,VWS V14.01,2013-02-08 14:10:00,
2013-02-08 07:14:00,32.1,19.8,30.07,WNW,298,0.0,0.0,60,0.00,,---,0.00,VWS V14.01,2013-02-08 14:14:00,
2013-02-08 07:15:00,32.1,19.8,30.07,WNW,298,0.0,1.0,60,0.00,,---,0.00,VWS V14.01,2013-02-08 14:15:00,
2013-02-08 07:19:00,31.9,19.6,30.07,West,267,0.0,0.0,60,0.00,,---,0.00,VWS V14.01,2013-02-08 14:19:00,
2013-02-08 07:24:00,32.1,19.8,30.07,SSW,203,0.0,0.0,60,0.00,,---,0.00,VWS V14.01,2013-02-08 14:24:00,
2013-02-08 07:29:00,32.1,20.2,30.07,SSW,203,0.0,0.0,61,0.00,,---,0.00,VWS V14.01,2013-02-08 14:29:00,
2013-02-08 07:30:00,32.1,19.8,30.08,SSW,203,0.0,0.0,60,0.00,,---,0.00,VWS V14.01,2013-02-08 14:30:00,
2013-02-08 07:34:00,32.1,19.8,30.07,SSW,203,0.0,0.0,60,0.00,,---,0.00,VWS V14.01,2013-02-08 14:34:00,
2013-02-08 07:35:00,32.2,19.9,30.07,SSW,203,0.0,0.0,60,0.00,,---,0.00,VWS V14.01,2013-02-08 14:35:00,
2013-02-08 07:39:00,32.3,20.4,30.07,SSW,203,0.0,0.0,61,0.00,,---,0.00,VWS V14.01,2013-02-08 14:39:00,
2013-02-08 07:40:00,32.3,20.4,30.07,SSW,203,0.0,0.0,61,0.00,,---,0.00,VWS V14.01,2013-02-08 14:40:00,
2013-02-08 07:44:00,32.6,20.3,30.07,SSW,203,0.0,0.0,60,0.00,,---,0.00,VWS V14.01,2013-02-08 14:44:00,
2013-02-08 07:45:00,32.6,20.3,30.07,SSW,203,0.0,0.0,60,0.00,,---,0.00,VWS V14.01,2013-02-08 14:45:00,
2013-02-08 07:49:00,33.2,20.4,30.07,SSW,203,0.0,0.0,59,0.00,,---,0.00,VWS V14.01,2013-02-08 14:49:00,
2013-02-08 07:50:00,33.1,20.3,30.07,SSW,203,0.0,1.0,59,0.00,,---,0.00,VWS V14.01,2013-02-08 14:50:00,
2013-02-08 07:54:00,33.4,20.6,30.07,SSW,203,0.0,0.0,59,0.00,,---,0.00,VWS V14.01,2013-02-08 14:54:00,
2013-02-08 07:55:00,33.4,20.2,30.08,SSW,203,0.0,1.0,58,0.00,,---,0.00,VWS V14.01,2013-02-08 14:55:00,
2013-02-08 07:59:00,33.7,20.5,30.07,SSW,209,1.0,1.0,58,0.00,,---,0.00,VWS V14.01,2013-02-08 14:59:00,
2013-02-08 08:00:00,33.6,20.4,30.08,SSW,207,0.0,1.0,58,0.00,,---,0.00,VWS V14.01,2013-02-08 15:00:00,
2013-02-08 08:04:00,34.1,20.5,30.08,WSW,252,0.0,0.0,57,0.00,,---,0.00,VWS V14.01,2013-02-08 15:04:00,
2013-02-08 08:05:00,34.1,20.5,30.08,WSW,252,0.0,1.0,57,0.00,,---,0.00,VWS V14.01,2013-02-08 15:05:00,
2013-02-08 08:09:00,34.4,20.3,30.08,WSW,252,0.0,0.0,56,0.00,,---,0.00,VWS V14.01,2013-02-08 15:09:00,
2013-02-08 08:10:00,34.4,20.3,30.08,WSW,252,0.0,0.0,56,0.00,,---,0.00,VWS V14.01,2013-02-08 15:10:00,
2013-02-08 08:14:00,34.9,20.8,30.07,WSW,252,0.0,0.0,56,0.00,,---,0.00,VWS V14.01,2013-02-08 15:14:00,
2013-02-08 08:15:00,34.8,20.7,30.07,WSW,252,0.0,0.0,56,0.00,,---,0.00,VWS V14.01,2013-02-08 15:15:00,
2013-02-08 08:19:00,35.2,20.7,30.08,WSW,255,0.0,0.0,55,0.00,,---,0.00,VWS V14.01,2013-02-08 15:19:00,
2013-02-08 08:20:00,35.1,20.6,30.08,WSW,255,0.0,1.0,55,0.00,,---,0.00,VWS V14.01,2013-02-08 15:20:00,
2013-02-08 08:24:00,35.5,20.5,30.07,WSW,255,0.0,0.0,54,0.00,,---,0.00,VWS V14.01,2013-02-08 15:24:00,
2013-02-08 08:29:00,35.9,20.9,30.07,NW,309,0.0,0.0,54,0.00,,---,0.00,VWS V14.01,2013-02-08 15:29:00,
2013-02-08 08:30:00,35.8,20.8,30.07,NW,309,0.0,2.0,54,0.00,,---,0.00,VWS V14.01,2013-02-08 15:30:00,
2013-02-08 08:34:00,36.4,20.9,30.07,NW,309,2.0,2.0,53,0.00,,---,0.00,VWS V14.01,2013-02-08 15:34:00,
2013-02-08 08:35:00,36.3,20.8,30.07,NW,309,1.0,1.0,53,0.00,,---,0.00,VWS V14.01,2013-02-08 15:35:00,
2013-02-08 08:39:00,36.8,21.3,30.07,NW,323,0.0,1.0,53,0.00,,---,0.00,VWS V14.01,2013-02-08 15:39:00,
2013-02-08 08:40:00,36.7,21.2,30.07,NW,319,1.0,2.0,53,0.00,,---,0.00,VWS V14.01,2013-02-08 15:40:00,
2013-02-08 08:44:00,37.1,20.7,30.07,NW,323,3.0,3.0,51,0.00,,---,0.00,VWS V14.01,2013-02-08 15:44:00,
2013-02-08 08:45:00,37.0,20.6,30.07,NW,323,0.0,1.0,51,0.00,,---,0.00,VWS V14.01,2013-02-08 15:45:00,
2013-02-08 08:49:00,37.3,20.9,30.06,NNW,327,0.0,1.0,51,0.00,,---,0.00,VWS V14.01,2013-02-08 15:49:00,
2013-02-08 08:50:00,37.3,20.9,30.06,NNW,327,0.0,3.0,51,0.00,,---,0.00,VWS V14.01,2013-02-08 15:50:00,
2013-02-08 08:54:00,37.4,20.5,30.06,NNW,341,0.0,0.0,50,0.00,,---,0.00,VWS V14.01,2013-02-08 15:54:00,
2013-02-08 08:55:00,37.4,20.5,30.06,NNW,341,0.0,3.0,50,0.00,,---,0.00,VWS V14.01,2013-02-08 15:55:00,
2013-02-08 08:59:00,37.7,20.8,30.06,NNW,341,1.0,2.0,50,0.00,,---,0.00,VWS V14.01,2013-02-08 15:59:00,
2013-02-08 09:00:00,37.7,20.8,30.06,NNW,341,1.0,2.0,50,0.00,,---,0.00,VWS V14.01,2013-02-08 16:00:00,
2013-02-08 09:04:00,38.0,20.5,30.06,NNW,342,0.0,2.0,49,0.00,,---,0.00,VWS V14.01,2013-02-08 16:04:00,
2013-02-08 09:05:00,38.0,21.0,30.06,NNW,341,2.0,3.0,50,0.00,,---,0.00,VWS V14.01,2013-02-08 16:05:00,
2013-02-08 09:09:00,38.3,20.8,30.06,NNW,338,3.0,3.0,49,0.00,,---,0.00,VWS V14.01,2013-02-08 16:09:00,
2013-02-08 09:10:00,38.3,20.8,30.06,NNW,338,1.0,3.0,49,0.00,,---,0.00,VWS V14.01,2013-02-08 16:10:00,
2013-02-08 09:14:00,38.4,20.9,30.06,NNW,338,1.0,2.0,49,0.00,,---,0.00,VWS V14.01,2013-02-08 16:14:00,
2013-02-08 09:15:00,38.4,20.9,30.06,NNW,338,2.0,3.0,49,0.00,,---,0.00,VWS V14.01,2013-02-08 16:15:00,
2013-02-08 09:19:00,38.9,20.9,30.06,NNW,338,0.0,1.0,48,0.00,,---,0.00,VWS V14.01,2013-02-08 16:19:00,
2013-02-08 09:20:00,38.9,20.9,30.06,NNW,338,1.0,2.0,48,0.00,,---,0.00,VWS V14.01,2013-02-08 16:20:00,
2013-02-08 09:24:00,39.5,21.5,30.06,North,349,1.0,2.0,48,0.00,,---,0.00,VWS V14.01,2013-02-08 16:24:00,
2013-02-08 09:25:00,39.4,21.4,30.05,NNW,345,2.0,3.0,48,0.00,,---,0.00,VWS V14.01,2013-02-08 16:25:00,
2013-02-08 09:29:00,39.8,21.7,30.05,NNW,346,0.0,0.0,48,0.00,,---,0.00,VWS V14.01,2013-02-08 16:29:00,
2013-02-08 09:30:00,39.8,21.7,30.05,NNW,346,0.0,3.0,48,0.00,,---,0.00,VWS V14.01,2013-02-08 16:30:00,
2013-02-08 09:34:00,40.1,21.5,30.05,NNW,343,0.0,1.0,47,0.00,,---,0.00,VWS V14.01,2013-02-08 16:34:00,
2013-02-08 09:35:00,40.1,21.5,30.05,NNW,343,1.0,3.0,47,0.00,,---,0.00,VWS V14.01,2013-02-08 16:35:00,
2013-02-08 09:39:00,40.4,21.8,30.05,NNW,335,0.0,0.0,47,0.00,,---,0.00,VWS V14.01,2013-02-08 16:39:00,
2013-02-08 09:44:00,40.7,21.5,30.05,North,355,2.0,5.0,46,0.00,,---,0.00,VWS V14.01,2013-02-08 16:44:00,
2013-02-08 09:45:00,40.6,21.5,30.04,North,360,3.0,4.0,46,0.00,,---,0.00,VWS V14.01,2013-02-08 16:45:00,
2013-02-08 09:49:00,41.1,21.9,30.05,NNW,347,0.0,1.0,46,0.00,,---,0.00,VWS V14.01,2013-02-08 16:49:00,
2013-02-08 09:50:00,41.1,21.9,30.05,NNW,347,1.0,5.0,46,0.00,,---,0.00,VWS V14.01,2013-02-08 16:50:00,
2013-02-08 09:54:00,41.8,21.5,30.04,NNW,343,2.0,2.0,44,0.00,,---,0.00,VWS V14.01,2013-02-08 16:54:00,
2013-02-08 09:59:00,42.2,21.3,30.04,North,351,1.0,2.0,43,0.00,,---,0.00,VWS V14.01,2013-02-08 16:59:00,
2013-02-08 10:00:00,42.2,21.3,30.04,North,351,0.0,3.0,43,0.00,,---,0.00,VWS V14.01,2013-02-08 17:00:00,
2013-02-08 10:04:00,42.2,21.3,30.04,NNW,342,0.0,1.0,43,0.00,,---,0.00,VWS V14.01,2013-02-08 17:04:00,
2013-02-08 10:05:00,42.2,21.3,30.04,NNW,342,1.0,3.0,43,0.00,,---,0.00,VWS V14.01,2013-02-08 17:05:00,
2013-02-08 10:09:00,42.8,21.9,30.04,North,5,2.0,3.0,43,0.00,,---,0.00,VWS V14.01,2013-02-08 17:09:00,
2013-02-08 10:10:00,42.7,21.8,30.04,NNW,342,1.0,2.0,43,0.00,,---,0.00,VWS V14.01,2013-02-08 17:10:00,
2013-02-08 10:14:00,43.1,21.6,30.03,NNW,343,0.0,2.0,42,0.00,,---,0.00,VWS V14.01,2013-02-08 17:14:00,
2013-02-08 10:15:00,43.1,21.6,30.03,North,360,0.0,3.0,42,0.00,,---,0.00,VWS V14.01,2013-02-08 17:15:00,
2013-02-08 10:19:00,43.3,21.8,30.04,NW,313,0.0,1.0,42,0.00,,---,0.00,VWS V14.01,2013-02-08 17:19:00,
2013-02-08 10:20:00,43.3,21.8,30.04,NW,313,0.0,2.0,42,0.00,,---,0.00,VWS V14.01,2013-02-08 17:20:00,
2013-02-08 10:24:00,43.6,22.0,30.03,NNW,333,0.0,2.0,42,0.00,,---,0.00,VWS V14.01,2013-02-08 17:24:00,
2013-02-08 10:25:00,43.5,22.0,30.03,NNW,333,2.0,3.0,42,0.00,,---,0.00,VWS V14.01,2013-02-08 17:25:00,
2013-02-08 10:29:00,44.4,22.2,30.03,North,360,0.0,1.0,41,0.00,,---,0.00,VWS V14.01,2013-02-08 17:29:00,
2013-02-08 10:30:00,44.3,22.1,30.03,North,360,0.0,5.0,41,0.00,,---,0.00,VWS V14.01,2013-02-08 17:30:00,
2013-02-08 10:34:00,45.0,22.1,30.03,WNW,292,1.0,1.0,40,0.00,,---,0.00,VWS V14.01,2013-02-08 17:34:00,
2013-02-08 10:35:00,44.9,22.1,30.03,WNW,286,0.0,2.0,40,0.00,,---,0.00,VWS V14.01,2013-02-08 17:35:00,
2013-02-08 10:39:00,45.5,22.0,30.03,NW,315,2.0,3.0,39,0.00,,---,0.00,VWS V14.01,2013-02-08 17:39:00,
2013-02-08 10:40:00,45.4,21.9,30.03,NW,314,1.0,1.0,39,0.00,,---,0.00,VWS V14.01,2013-02-08 17:40:00,
2013-02-08 10:44:00,45.7,22.2,30.03,NW,324,0.0,0.0,39,0.00,,---,0.00,VWS V14.01,2013-02-08 17:44:00,
2013-02-08 10:45:00,45.7,21.6,30.03,NW,324,0.0,3.0,38,0.00,,---,0.00,VWS V14.01,2013-02-08 17:45:00,
2013-02-08 10:49:00,45.8,21.6,30.03,NW,315,0.0,0.0,38,0.00,,---,0.00,VWS V14.01,2013-02-08 17:49:00,
2013-02-08 10:50:00,45.8,21.6,30.02,NW,315,0.0,1.0,38,0.00,,---,0.00,VWS V14.01,2013-02-08 17:50:00,
2013-02-08 10:54:00,46.3,22.1,30.02,SW,221,3.0,3.0,38,0.00,,---,0.00,VWS V14.01,2013-02-08 17:54:00,
2013-02-08 10:55:00,46.3,22.1,30.02,WSW,246,2.0,2.0,38,0.00,,---,0.00,VWS V14.01,2013-02-08 17:55:00,
2013-02-08 10:59:00,45.9,21.7,30.02,SW,221,0.0,0.0,38,0.00,,---,0.00,VWS V14.01,2013-02-08 17:59:00,
2013-02-08 11:00:00,45.9,21.7,30.02,SW,221,0.0,3.0,38,0.00,,---,0.00,VWS V14.01,2013-02-08 18:00:00,
2013-02-08 11:04:00,46.8,21.9,30.02,SSW,196,2.0,2.0,37,0.00,,---,0.00,VWS V14.01,2013-02-08 18:04:00,
2013-02-08 11:05:00,46.6,21.7,30.02,SW,221,0.0,1.0,37,0.00,,---,0.00,VWS V14.01,2013-02-08 18:05:00,
2013-02-08 11:09:00,46.9,22.0,30.02,West,259,3.0,3.0,37,0.00,,---,0.00,VWS V14.01,2013-02-08 18:09:00,
2013-02-08 11:10:00,46.8,21.9,30.02,SSW,196,0.0,2.0,37,0.00,,---,0.00,VWS V14.01,2013-02-08 18:10:00,
2013-02-08 11:14:00,47.1,22.2,30.01,West,270,0.0,0.0,37,0.00,,---,0.00,VWS V14.01,2013-02-08 18:14:00,
2013-02-08 11:15:00,47.1,22.2,30.02,West,270,0.0,3.0,37,0.00,,---,0.00,VWS V14.01,2013-02-08 18:15:00,
2013-02-08 11:19:00,47.6,22.0,30.01,West,270,0.0,0.0,36,0.00,,---,0.00,VWS V14.01,2013-02-08 18:19:00,
2013-02-08 11:20:00,47.6,22.0,30.01,West,270,0.0,0.0,36,0.00,,---,0.00,VWS V14.01,2013-02-08 18:20:00,
2013-02-08 11:24:00,47.8,22.2,30.01,SSE,167,0.0,1.0,36,0.00,,---,0.00,VWS V14.01,2013-02-08 18:24:00,
2013-02-08 11:25:00,47.8,22.2,30.01,SSE,167,0.0,3.0,36,0.00,,---,0.00,VWS V14.01,2013-02-08 18:25:00,
2013-02-08 11:29:00,48.4,22.0,30.00,SSE,164,0.0,1.0,35,0.00,,---,0.00,VWS V14.01,2013-02-08 18:29:00,
2013-02-08 11:30:00,48.3,22.6,30.00,SSE,164,0.0,2.0,36,0.00,,---,0.00,VWS V14.01,2013-02-08 18:30:00,
2013-02-08 11:35:00,48.8,22.4,30.00,SSE,161,3.0,3.0,35,0.00,,---,0.00,VWS V14.01,2013-02-08 18:35:00,
2013-02-08 11:40:00,48.9,22.5,29.99,SSE,156,2.0,2.0,35,0.00,,---,0.00,VWS V14.01,2013-02-08 18:40:00,
2013-02-08 11:45:00,49.5,22.3,29.99,SSE,159,2.0,3.0,34,0.00,,---,0.00,VWS V14.01,2013-02-08 18:45:00,
2013-02-08 11:50:00,50.2,22.9,29.98,South,171,2.0,2.0,34,0.00,,---,0.00,VWS V14.01,2013-02-08 18:50:00,
2013-02-08 11:55:00,50.9,22.1,29.97,ESE,118,7.0,9.0,32,0.00,,---,0.00,VWS V14.01,2013-02-08 18:55:00,
2013-02-08 12:00:00,51.0,22.2,29.97,South,175,1.0,6.0,32,0.00,,---,0.00,VWS V14.01,2013-02-08 19:00:00,
2013-02-08 12:05:00,51.6,22.7,29.96,SSE,163,5.0,7.0,32,0.00,,---,0.00,VWS V14.01,2013-02-08 19:05:00,
2013-02-08 12:10:00,52.1,22.4,29.96,SE,132,7.0,11.0,31,0.00,,---,0.00,VWS V14.01,2013-02-08 19:10:00,
2013-02-08 12:15:00,52.1,22.4,29.95,SSE,153,6.0,7.0,31,0.00,,---,0.00,VWS V14.01,2013-02-08 19:15:00,
2013-02-08 12:20:00,52.2,22.5,29.95,SE,143,3.0,7.0,31,0.00,,---,0.00,VWS V14.01,2013-02-08 19:20:00,
2013-02-08 12:25:00,52.7,22.9,29.94,WSW,247,3.0,8.0,31,0.00,,---,0.00,VWS V14.01,2013-02-08 19:25:00,
2013-02-08 12:30:00,53.6,22.9,29.94,SE,142,5.0,5.0,30,0.00,,---,0.00,VWS V14.01,2013-02-08 19:30:00,
2013-02-08 12:35:00,53.9,23.2,29.93,SSE,153,4.0,6.0,30,0.00,,---,0.00,VWS V14.01,2013-02-08 19:35:00,
2013-02-08 12:40:00,54.8,23.2,29.91,WSW,242,8.0,8.0,29,0.00,,---,0.00,VWS V14.01,2013-02-08 19:40:00,
2013-02-08 12:45:00,54.3,22.7,29.91,WSW,238,9.0,12.0,29,0.00,,---,0.00,VWS V14.01,2013-02-08 19:45:00,
2013-02-08 12:50:00,54.9,23.3,29.90,SSW,205,4.0,4.0,29,0.00,,---,0.00,VWS V14.01,2013-02-08 19:50:00,
2013-02-08 12:55:00,55.4,22.9,29.90,SSW,207,5.0,10.0,28,0.00,,---,0.00,VWS V14.01,2013-02-08 19:55:00,
2013-02-08 13:00:00,55.5,23.0,29.90,SE,146,10.0,10.0,28,0.00,,---,0.00,VWS V14.01,2013-02-08 20:00:00,
2013-02-08 13:05:00,55.5,23.0,29.89,SSW,200,6.0,7.0,28,0.00,,---,0.00,VWS V14.01,2013-02-08 20:05:00,
2013-02-08 13:10:00,56.2,23.5,29.89,SE,130,4.0,10.0,28,0.00,,---,0.00,VWS V14.01,2013-02-08 20:10:00,
2013-02-08 13:15:00,56.2,22.7,29.88,SE,140,17.0,17.0,27,0.00,,---,0.00,VWS V14.01,2013-02-08 20:15:00,
2013-02-08 13:20:00,56.8,23.2,29.88,SSE,167,8.0,8.0,27,0.00,,---,0.00,VWS V14.01,2013-02-08 20:20:00,
2013-02-08 13:25:00,56.8,23.2,29.87,WSW,238,10.0,10.0,27,0.00,,---,0.00,VWS V14.01,2013-02-08 20:25:00,
2013-02-08 13:30:00,57.1,22.6,29.87,South,190,9.0,15.0,26,0.00,,---,0.00,VWS V14.01,2013-02-08 20:30:00,
2013-02-08 13:35:00,57.4,22.8,29.87,South,181,6.0,11.0,26,0.00,,---,0.00,VWS V14.01,2013-02-08 20:35:00,
2013-02-08 13:40:00,57.3,22.7,29.87,ESE,115,7.0,11.0,26,0.00,,---,0.00,VWS V14.01,2013-02-08 20:40:00,
2013-02-08 13:45:00,57.3,21.8,29.86,SE,138,11.0,22.0,25,0.00,,---,0.00,VWS V14.01,2013-02-08 20:45:00,
2013-02-08 13:50:00,57.0,21.5,29.86,South,183,9.0,14.0,25,0.00,,---,0.00,VWS V14.01,2013-02-08 20:50:00,
2013-02-08 13:55:00,57.7,21.2,29.85,SE,132,7.0,14.0,24,0.00,,---,0.00,VWS V14.01,2013-02-08 20:55:00,
2013-02-08 14:00:00,57.8,22.2,29.85,SSW,209,7.0,12.0,25,0.00,,---,0.00,VWS V14.01,2013-02-08 21:00:00,
2013-02-08 14:05:00,57.7,21.2,29.85,SSW,209,11.0,13.0,24,0.00,,---,0.00,VWS V14.01,2013-02-08 21:05:00,
2013-02-08 14:10:00,57.7,21.2,29.84,WSW,244,7.0,16.0,24,0.00,,---,0.00,VWS V14.01,2013-02-08 21:10:00,
2013-02-08 14:15:00,57.7,21.2,29.84,South,177,13.0,13.0,24,0.00,,---,0.00,VWS V14.01,2013-02-08 21:15:00,
2013-02-08 14:20:00,57.3,21.8,29.84,SE,141,8.0,17.0,25,0.00,,---,0.00,VWS V14.01,2013-02-08 21:20:00,
2013-02-08 14:25:00,57.1,21.6,29.84,SW,222,5.0,8.0,25,0.00,,---,0.00,VWS V14.01,2013-02-08 21:25:00,
2013-02-08 14:30:00,57.5,21.0,29.83,SSE,161,14.0,22.0,24,0.00,,---,0.00,VWS V14.01,2013-02-08 21:30:00,
2013-02-08 14:35:00,57.8,21.3,29.83,SSE,161,7.0,7.0,24,0.00,,---,0.00,VWS V14.01,2013-02-08 21:35:00,
2013-02-08 14:40:00,58.1,21.5,29.83,SSE,150,7.0,11.0,24,0.00,,---,0.00,VWS V14.01,2013-02-08 21:40:00,
2013-02-08 14:45:00,57.9,21.4,29.83,East,97,11.0,18.0,24,0.00,,---,0.00,VWS V14.01,2013-02-08 21:45:00,
2013-02-08 14:50:00,57.4,20.9,29.83,South,191,7.0,11.0,24,0.00,,---,0.00,VWS V14.01,2013-02-08 21:50:00,
2013-02-08 14:55:00,57.0,21.5,29.82,SSW,200,8.0,15.0,25,0.00,,---,0.00,VWS V14.01,2013-02-08 21:55:00,
2013-02-08 15:00:00,56.9,21.5,29.82,South,189,14.0,20.0,25,0.00,,---,0.00,VWS V14.01,2013-02-08 22:00:00,
2013-02-08 15:05:00,56.7,22.2,29.82,SSE,151,12.0,13.0,26,0.00,,---,0.00,VWS V14.01,2013-02-08 22:05:00,
2013-02-08 15:10:00,56.7,22.2,29.82,SSW,192,12.0,13.0,26,0.00,,---,0.00,VWS V14.01,2013-02-08 22:10:00,
2013-02-08 15:15:00,56.5,22.0,29.82,SSE,162,4.0,9.0,26,0.00,,---,0.00,VWS V14.01,2013-02-08 22:15:00,
2013-02-08 15:20:00,56.4,22.0,29.82,SW,223,7.0,11.0,26,0.00,,---,0.00,VWS V14.01,2013-02-08 22:20:00,
2013-02-08 15:25:00,56.4,22.0,29.82,South,172,4.0,7.0,26,0.00,,---,0.00,VWS V14.01,2013-02-08 22:25:00,
2013-02-08 15:30:00,56.4,22.9,29.81,SSE,153,6.0,16.0,27,0.00,,---,0.00,VWS V14.01,2013-02-08 22:30:00,
2013-02-08 15:35:00,56.0,22.5,29.81,SE,131,11.0,17.0,27,0.00,,---,0.00,VWS V14.01,2013-02-08 22:35:00,
2013-02-08 15:40:00,56.2,22.7,29.81,SSE,150,4.0,14.0,27,0.00,,---,0.00,VWS V14.01,2013-02-08 22:40:00,
2013-02-08 15:45:00,56.2,22.7,29.80,SSE,167,12.0,20.0,27,0.00,,---,0.00,VWS V14.01,2013-02-08 22:45:00,
2013-02-08 15:50:00,55.9,22.4,29.80,South,182,14.0,20.0,27,0.00,,---,0.00,VWS V14.01,2013-02-08 22:50:00,
2013-02-08 15:55:00,55.6,22.2,29.80,WSW,243,4.0,10.0,27,0.00,,---,0.00,VWS V14.01,2013-02-08 22:55:00,
2013-02-08 16:00:00,55.7,22.3,29.80,SSE,159,5.0,15.0,27,0.00,,---,0.00,VWS V14.01,2013-02-08 23:00:00,
2013-02-08 16:05:00,55.8,22.3,29.79,SSE,157,5.0,10.0,27,0.00,,---,0.00,VWS V14.01,2013-02-08 23:05:00,
2013-02-08 16:10:00,55.8,22.3,29.79,SSE,155,13.0,18.0,27,0.00,,---,0.00,VWS V14.01,2013-02-08 23:10:00,
2013-02-08 16:15:00,55.7,22.3,29.79,SSE,159,6.0,10.0,27,0.00,,---,0.00,VWS V14.01,2013-02-08 23:15:00,
2013-02-08 16:20:00,55.7,22.3,29.78,SSE,148,6.0,11.0,27,0.00,,---,0.00,VWS V14.01,2013-02-08 23:20:00,
2013-02-08 16:25:00,55.6,22.2,29.78,SSE,153,6.0,14.0,27,0.00,,---,0.00,VWS V14.01,2013-02-08 23:25:00,
2013-02-08 16:30:00,55.5,22.1,29.78,West,281,8.0,17.0,27,0.00,,---,0.00,VWS V14.01,2013-02-08 23:30:00,
2013-02-08 16:35:00,55.5,22.1,29.78,SW,229,12.0,13.0,27,0.00,,---,0.00,VWS V14.01,2013-02-08 23:35:00,
2013-02-08 16:40:00,55.4,22.0,29.78,SSE,159,5.0,14.0,27,0.00,,---,0.00,VWS V14.01,2013-02-08 23:40:00,
2013-02-08 16:45:00,55.4,22.0,29.78,SSE,150,10.0,13.0,27,0.00,,---,0.00,VWS V14.01,2013-02-08 23:45:00,
2013-02-08 16:50:00,55.3,21.9,29.78,South,177,8.0,12.0,27,0.00,,---,0.00,VWS V14.01,2013-02-08 23:50:00,
2013-02-08 16:55:00,55.2,22.7,29.78,SE,133,4.0,12.0,28,0.00,,---,0.00,VWS V14.01,2013-02-08 23:55:00,
2013-02-08 17:00:00,55.0,22.5,29.78,SSE,156,9.0,10.0,28,0.00,,---,0.00,VWS V14.01,2013-02-09 00:00:00,
2013-02-08 17:05:00,54.9,22.4,29.78,South,169,10.0,15.0,28,0.00,,---,0.00,VWS V14.01,2013-02-09 00:05:00,
2013-02-08 17:10:00,54.8,22.3,29.78,SSE,149,6.0,12.0,28,0.00,,---,0.00,VWS V14.01,2013-02-09 00:10:00,
2013-02-08 17:15:00,54.7,22.3,29.78,SSE,159,11.0,13.0,28,0.00,,---,0.00,VWS V14.01,2013-02-09 00:15:00,
2013-02-08 17:20:00,54.7,22.3,29.77,ESE,121,5.0,15.0,28,0.00,,---,0.00,VWS V14.01,2013-02-09 00:20:00,
2013-02-08 17:25:00,54.7,22.3,29.77,SSE,161,8.0,15.0,28,0.00,,---,0.00,VWS V14.01,2013-02-09 00:25:00,
2013-02-08 17:30:00,54.5,22.1,29.77,SSE,161,8.0,12.0,28,0.00,,---,0.00,VWS V14.01,2013-02-09 00:30:00,
2013-02-08 17:35:00,54.4,22.0,29.78,SE,136,8.0,10.0,28,0.00,,---,0.00,VWS V14.01,2013-02-09 00:35:00,
2013-02-08 17:40:00,54.2,21.8,29.78,South,185,11.0,13.0,28,0.00,,---,0.00,VWS V14.01,2013-02-09 00:40:00,
2013-02-08 17:45:00,54.2,21.0,29.78,South,181,9.0,13.0,27,0.00,,---,0.00,VWS V14.01,2013-02-09 00:45:00,
2013-02-08 17:50:00,54.1,20.9,29.78,SE,134,11.0,13.0,27,0.00,,---,0.00,VWS V14.01,2013-02-09 00:50:00,
2013-02-08 17:55:00,54.1,20.9,29.78,SE,142,15.0,15.0,27,0.00,,---,0.00,VWS V14.01,2013-02-09 00:55:00,
2013-02-08 18:00:00,54.0,20.8,29.78,ESE,120,17.0,17.0,27,0.00,,---,0.00,VWS V14.01,2013-02-09 01:00:00,
2013-02-08 18:05:00,53.8,20.6,29.78,SSE,163,8.0,11.0,27,0.00,,---,0.00,VWS V14.01,2013-02-09 01:05:00,
2013-02-08 18:10:00,53.7,20.5,29.78,SSW,208,7.0,14.0,27,0.00,,---,0.00,VWS V14.01,2013-02-09 01:10:00,
2013-02-08 18:15:00,53.6,20.5,29.77,SSE,165,9.0,9.0,27,0.00,,---,0.00,VWS V14.01,2013-02-09 01:15:00,
2013-02-08 18:20:00,53.6,20.5,29.77,SE,142,6.0,10.0,27,0.00,,---,0.00,VWS V14.01,2013-02-09 01:20:00,
2013-02-08 18:25:00,53.5,20.4,29.78,SSE,158,8.0,11.0,27,0.00,,---,0.00,VWS V14.01,2013-02-09 01:25:00,
2013-02-08 18:30:00,53.5,20.4,29.78,ESE,117,5.0,11.0,27,0.00,,---,0.00,VWS V14.01,2013-02-09 01:30:00,
2013-02-08 18:35:00,53.4,20.3,29.78,SSE,161,7.0,11.0,27,0.00,,---,0.00,VWS V14.01,2013-02-09 01:35:00,
2013-02-08 18:40:00,53.4,20.3,29.78,SSE,150,13.0,13.0,27,0.00,,---,0.00,VWS V14.01,2013-02-09 01:40:00,
2013-02-08 18:45:00,53.5,20.4,29.78,South,177,6.0,7.0,27,0.00,,---,0.00,VWS V14.01,2013-02-09 01:45:00,
2013-02-08 18:50:00,53.6,20.5,29.78,South,182,10.0,16.0,27,0.00,,---,0.00,VWS V14.01,2013-02-09 01:50:00,
2013-02-08 18:55:00,53.5,20.4,29.78,SE,139,6.0,12.0,27,0.00,,---,0.00,VWS V14.01,2013-02-09 01:55:00,
2013-02-08 19:00:00,53.6,20.5,29.78,SE,134,4.0,13.0,27,0.00,,---,0.00,VWS V14.01,2013-02-09 02:00:00,
2013-02-08 19:05:00,53.5,20.4,29.78,SSE,160,6.0,13.0,27,0.00,,---,0.00,VWS V14.01,2013-02-09 02:05:00,
2013-02-08 19:10:00,53.6,20.5,29.78,SSE,165,6.0,13.0,27,0.00,,---,0.00,VWS V14.01,2013-02-09 02:10:00,
2013-02-08 19:15:00,53.5,20.4,29.78,SSE,163,6.0,11.0,27,0.00,,---,0.00,VWS V14.01,2013-02-09 02:15:00,
2013-02-08 19:20:00,53.4,20.3,29.78,South,178,4.0,8.0,27,0.00,,---,0.00,VWS V14.01,2013-02-09 02:20:00,
2013-02-08 19:25:00,53.2,20.1,29.78,SSE,163,11.0,11.0,27,0.00,,---,0.00,VWS V14.01,2013-02-09 02:25:00,
2013-02-08 19:30:00,53.1,20.0,29.78,SSE,148,14.0,14.0,27,0.00,,---,0.00,VWS V14.01,2013-02-09 02:30:00,
2013-02-08 19:35:00,53.1,20.0,29.78,South,179,7.0,12.0,27,0.00,,---,0.00,VWS V14.01,2013-02-09 02:35:00,
2013-02-08 19:40:00,53.0,19.9,29.78,South,169,4.0,7.0,27,0.00,,---,0.00,VWS V14.01,2013-02-09 02:40:00,
2013-02-08 19:45:00,52.8,20.6,29.78,SE,130,10.0,11.0,28,0.00,,---,0.00,VWS V14.01,2013-02-09 02:45:00,
2013-02-08 19:50:00,52.6,20.4,29.78,SE,138,10.0,14.0,28,0.00,,---,0.00,VWS V14.01,2013-02-09 02:50:00,
2013-02-08 19:55:00,52.6,20.4,29.79,South,171,5.0,7.0,28,0.00,,---,0.00,VWS V14.01,2013-02-09 02:55:00,
2013-02-08 20:00:00,52.4,20.3,29.79,ESE,105,9.0,10.0,28,0.00,,---,0.00,VWS V14.01,2013-02-09 03:00:00,
2013-02-08 20:05:00,52.4,20.3,29.79,WSW,246,4.0,9.0,28,0.00,,---,0.00,VWS V14.01,2013-02-09 03:05:00,
2013-02-08 20:10:00,52.2,20.1,29.78,SE,127,5.0,9.0,28,0.00,,---,0.00,VWS V14.01,2013-02-09 03:10:00,
2013-02-08 20:15:00,52.0,19.9,29.78,SE,136,6.0,8.0,28,0.00,,---,0.00,VWS V14.01,2013-02-09 03:15:00,
2013-02-08 20:20:00,51.9,19.8,29.79,SE,134,7.0,8.0,28,0.00,,---,0.00,VWS V14.01,2013-02-09 03:20:00,
2013-02-08 20:25:00,51.7,19.7,29.78,South,175,5.0,6.0,28,0.00,,---,0.00,VWS V14.01,2013-02-09 03:25:00,
2013-02-08 20:30:00,51.5,19.5,29.78,SSE,155,9.0,9.0,28,0.00,,---,0.00,VWS V14.01,2013-02-09 03:30:00,
2013-02-08 20:35:00,51.4,19.4,29.78,SE,133,7.0,8.0,28,0.00,,---,0.00,VWS V14.01,2013-02-09 03:35:00,
2013-02-08 20:40:00,51.3,19.3,29.78,SSE,159,4.0,5.0,28,0.00,,---,0.00,VWS V14.01,2013-02-09 03:40:00,
2013-02-08 20:45:00,51.0,19.1,29.78,SSE,156,6.0,7.0,28,0.00,,---,0.00,VWS V14.01,2013-02-09 03:45:00,
2013-02-08 20:50:00,50.8,18.0,29.78,South,188,4.0,7.0,27,0.00,,---,0.00,VWS V14.01,2013-02-09 03:50:00,
2013-02-08 20:55:00,50.7,18.0,29.78,SSE,166,3.0,6.0,27,0.00,,---,0.00,VWS V14.01,2013-02-09 03:55:00,
2013-02-08 21:00:00,50.5,17.8,29.77,SE,140,6.0,9.0,27,0.00,,---,0.00,VWS V14.01,2013-02-09 04:00:00,
2013-02-08 21:05:00,50.6,17.9,29.77,SE,146,6.0,8.0,27,0.00,,---,0.00,VWS V14.01,2013-02-09 04:05:00,
2013-02-08 21:10:00,50.7,18.0,29.77,SSE,152,3.0,9.0,27,0.00,,---,0.00,VWS V14.01,2013-02-09 04:10:00,
2013-02-08 21:15:00,50.9,18.1,29.77,South,180,3.0,7.0,27,0.00,,---,0.00,VWS V14.01,2013-02-09 04:15:00,
2013-02-08 21:20:00,50.9,18.1,29.77,South,169,2.0,7.0,27,0.00,,---,0.00,VWS V14.01,2013-02-09 04:20:00,
2013-02-08 21:25:00,50.7,18.0,29.77,South,169,3.0,5.0,27,0.00,,---,0.00,VWS V14.01,2013-02-09 04:25:00,
2013-02-08 21:30:00,50.5,17.8,29.76,SE,142,3.0,6.0,27,0.00,,---,0.00,VWS V14.01,2013-02-09 04:30:00,
2013-02-08 21:35:00,50.5,17.8,29.76,South,175,4.0,8.0,27,0.00,,---,0.00,VWS V14.01,2013-02-09 04:35:00,
2013-02-08 21:40:00,50.4,17.7,29.76,SE,144,4.0,6.0,27,0.00,,---,0.00,VWS V14.01,2013-02-09 04:40:00,
2013-02-08 21:45:00,50.2,17.5,29.76,SSE,150,4.0,6.0,27,0.00,,---,0.00,VWS V14.01,2013-02-09 04:45:00,
2013-02-08 21:50:00,50.1,17.4,29.76,South,190,5.0,5.0,27,0.00,,---,0.00,VWS V14.01,2013-02-09 04:50:00,
2013-02-08 21:55:00,49.9,17.3,29.76,SSE,148,5.0,8.0,27,0.00,,---,0.00,VWS V14.01,2013-02-09 04:55:00,
2013-02-08 22:00:00,49.7,17.1,29.76,SSE,152,3.0,4.0,27,0.00,,---,0.00,VWS V14.01,2013-02-09 05:00:00,
2013-02-08 22:05:00,49.4,16.8,29.76,South,171,3.0,5.0,27,0.00,,---,0.00,VWS V14.01,2013-02-09 05:05:00,
2013-02-08 22:10:00,49.4,16.8,29.76,SSE,168,1.0,4.0,27,0.00,,---,0.00,VWS V14.01,2013-02-09 05:10:00,
2013-02-08 22:15:00,49.4,16.8,29.75,SSE,148,6.0,6.0,27,0.00,,---,0.00,VWS V14.01,2013-02-09 05:15:00,
2013-02-08 22:20:00,49.3,16.8,29.75,SSE,166,3.0,5.0,27,0.00,,---,0.00,VWS V14.01,2013-02-09 05:20:00,
2013-02-08 22:25:00,49.2,16.7,29.75,SSW,201,3.0,7.0,27,0.00,,---,0.00,VWS V14.01,2013-02-09 05:25:00,
2013-02-08 22:30:00,49.4,16.8,29.75,South,186,3.0,6.0,27,0.00,,---,0.00,VWS V14.01,2013-02-09 05:30:00,
2013-02-08 22:35:00,49.5,16.9,29.75,SSW,196,5.0,6.0,27,0.00,,---,0.00,VWS V14.01,2013-02-09 05:35:00,
2013-02-08 22:40:00,49.6,17.0,29.75,SW,215,4.0,7.0,27,0.00,,---,0.00,VWS V14.01,2013-02-09 05:40:00,
2013-02-08 22:45:00,49.5,16.9,29.75,SE,138,4.0,5.0,27,0.00,,---,0.00,VWS V14.01,2013-02-09 05:45:00,
2013-02-08 22:50:00,49.4,16.8,29.74,SSW,204,4.0,4.0,27,0.00,,---,0.00,VWS V14.01,2013-02-09 05:50:00,
2013-02-08 22:55:00,49.3,17.6,29.74,SSW,206,4.0,4.0,28,0.00,,---,0.00,VWS V14.01,2013-02-09 05:55:00,
2013-02-08 23:00:00,49.1,17.4,29.74,South,175,4.0,4.0,28,0.00,,---,0.00,VWS V14.01,2013-02-09 06:00:00,
2013-02-08 23:05:00,48.9,18.1,29.74,SSE,162,2.0,4.0,29,0.00,,---,0.00,VWS V14.01,2013-02-09 06:05:00,
2013-02-08 23:10:00,48.7,17.9,29.74,SSE,164,4.0,8.0,29,0.00,,---,0.00,VWS V14.01,2013-02-09 06:10:00,
2013-02-08 23:15:00,48.9,18.1,29.73,South,179,3.0,8.0,29,0.00,,---,0.00,VWS V14.01,2013-02-09 06:15:00,
2013-02-08 23:20:00,48.9,18.9,29.73,SE,128,4.0,6.0,30,0.00,,---,0.00,VWS V14.01,2013-02-09 06:20:00,
2013-02-08 23:25:00,49.0,18.9,29.73,South,175,5.0,5.0,30,0.00,,---,0.00,VWS V14.01,2013-02-09 06:25:00,
2013-02-08 23:30:00,49.0,19.7,29.73,SSE,157,4.0,5.0,31,0.00,,---,0.00,VWS V14.01,2013-02-09 06:30:00,
2013-02-08 23:35:00,48.8,20.3,29.73,South,188,1.0,4.0,32,0.00,,---,0.00,VWS V14.01,2013-02-09 06:35:00,
2013-02-08 23:40:00,48.5,20.0,29.72,SE,137,3.0,7.0,32,0.00,,---,0.00,VWS V14.01,2013-02-09 06:40:00,
2013-02-08 23:45:00,48.3,20.5,29.72,SSE,153,2.0,4.0,33,0.00,,---,0.00,VWS V14.01,2013-02-09 06:45:00,
2013-02-08 23:50:00,48.0,20.3,29.72,SSW,205,4.0,6.0,33,0.00,,---,0.00,VWS V14.01,2013-02-09 06:50:00,
2013-02-08 23:55:00,47.8,20.8,29.72,SSE,150,3.0,3.0,34,0.00,,---,0.00,VWS V14.01,2013-02-09 06:55:00,